Terminal Aerodrome Forecast
Issued by NWS

Home | Current Version | Previous Version | Text Only | Print | Product List | Glossary On
Versions: 1 2 3 4 5 6 7 8 9 10 11 12 13 14 15
000
FTAK31 PAJN 210800 AAA
TAFAPG
TAF AMD
PAPG 210839Z 2109/2206 12008KT P6SM -SHRA BKN050 OVC070
     FM211500 10010KT P6SM -RA SCT025 OVC040 WS020/13030KT
     FM212100 06005KT P6SM VCSH SCT030 BKN050
      AMD NOT SKED 2106/2115=

USA.gov is the U.S. government's official web portal to all federal, state and local government web resources and services.